sensor_id;sensor_type;location;lat;lon;timestamp;temperature;humidity
20839;DHT22;10580;51.092;6.828;2023-04-03T00:01:31;2.50;1.00
20839;DHT22;10580;51.092;6.828;2023-04-03T00:03:56;2.40;1.00
20839;DHT22;10580;51.092;6.828;2023-04-03T00:06:22;2.40;1.00
20839;DHT22;10580;51.092;6.828;2023-04-03T00:08:49;2.30;1.00
20839;DHT22;10580;51.092;6.828;2023-04-03T00:11:15;2.30;1.00
20839;DHT22;10580;51.092;6.828;2023-04-03T00:13:41;2.30;1.00
20839;DHT22;10580;51.092;6.828;2023-04-03T00:16:08;2.20;1.00
20839;DHT22;10580;51.092;6.828;2023-04-03T00:18:34;2.20;1.00
20839;DHT22;10580;51.092;6.828;2023-04-03T00:21:00;2.20;1.00
20839;DHT22;10580;51.092;6.828;2023-04-03T00:23:26;2.10;1.00
20839;DHT22;10580;51.092;6.828;2023-04-03T00:25:52;2.10;1.00
20839;DHT22;10580;51.092;6.828;2023-04-03T00:28:18;2.10;1.00
20839;DHT22;10580;51.092;6.828;2023-04-03T00:30:44;2.10;1.00
20839;DHT22;10580;51.092;6.828;2023-04-03T00:33:12;2.10;1.00
20839;DHT22;10580;51.092;6.828;2023-04-03T00:35:38;2.00;1.00
20839;DHT22;10580;51.092;6.828;2023-04-03T00:38:04;2.00;1.00
20839;DHT22;10580;51.092;6.828;2023-04-03T00:40:36;2.00;1.00
20839;DHT22;10580;51.092;6.828;2023-04-03T00:43:10;2.00;1.00
20839;DHT22;10580;51.092;6.828;2023-04-03T00:45:39;1.90;1.00
20839;DHT22;10580;51.092;6.828;2023-04-03T00:48:08;1.90;1.00
20839;DHT22;10580;51.092;6.828;2023-04-03T00:50:37;1.80;1.00
20839;DHT22;10580;51.092;6.828;2023-04-03T00:53:05;1.80;1.00
20839;DHT22;10580;51.092;6.828;2023-04-03T00:55:32;1.80;1.00
20839;DHT22;10580;51.092;6.828;2023-04-03T00:57:58;1.80;1.00
20839;DHT22;10580;51.092;6.828;2023-04-03T01:00:26;1.70;1.00
20839;DHT22;10580;51.092;6.828;2023-04-03T01:02:52;1.70;1.00
20839;DHT22;10580;51.092;6.828;2023-04-03T01:05:19;1.70;1.00
20839;DHT22;10580;51.092;6.828;2023-04-03T01:07:46;1.60;1.00
20839;DHT22;10580;51.092;6.828;2023-04-03T01:10:14;1.60;1.00
20839;DHT22;10580;51.092;6.828;2023-04-03T01:12:43;1.60;1.00
20839;DHT22;10580;51.092;6.828;2023-04-03T01:17:49;1.50;1.00
20839;DHT22;10580;51.092;6.828;2023-04-03T01:25:51;1.50;6.10
20839;DHT22;10580;51.092;6.828;2023-04-03T01:28:20;1.40;2.90
20839;DHT22;10580;51.092;6.828;2023-04-03T01:30:56;1.40;4.60
20839;DHT22;10580;51.092;6.828;2023-04-03T01:33:23;1.40;7.50
20839;DHT22;10580;51.092;6.828;2023-04-03T01:35:49;1.40;8.60
20839;DHT22;10580;51.092;6.828;2023-04-03T01:38:14;1.30;15.80
20839;DHT22;10580;51.092;6.828;2023-04-03T01:40:41;1.30;8.70
20839;DHT22;10580;51.092;6.828;2023-04-03T01:43:06;1.20;11.00
20839;DHT22;10580;51.092;6.828;2023-04-03T01:45:32;1.20;12.20
20839;DHT22;10580;51.092;6.828;2023-04-03T01:47:58;1.20;15.00
20839;DHT22;10580;51.092;6.828;2023-04-03T01:50:23;1.10;17.10
20839;DHT22;10580;51.092;6.828;2023-04-03T01:52:49;1.10;18.60
20839;DHT22;10580;51.092;6.828;2023-04-03T01:55:14;1.10;21.20
20839;DHT22;10580;51.092;6.828;2023-04-03T01:57:40;1.10;24.20
20839;DHT22;10580;51.092;6.828;2023-04-03T02:00:06;1.10;29.80
20839;DHT22;10580;51.092;6.828;2023-04-03T02:02:33;1.00;26.80
20839;DHT22;10580;51.092;6.828;2023-04-03T02:04:59;1.00;29.50
20839;DHT22;10580;51.092;6.828;2023-04-03T02:07:24;1.00;28.80
20839;DHT22;10580;51.092;6.828;2023-04-03T02:09:50;1.00;30.10
20839;DHT22;10580;51.092;6.828;2023-04-03T02:12:15;1.00;33.40
20839;DHT22;10580;51.092;6.828;2023-04-03T02:14:41;1.00;35.60
20839;DHT22;10580;51.092;6.828;2023-04-03T02:17:07;1.00;35.60
20839;DHT22;10580;51.092;6.828;2023-04-03T02:19:34;1.00;37.30
20839;DHT22;10580;51.092;6.828;2023-04-03T02:22:01;0.90;45.40
20839;DHT22;10580;51.092;6.828;2023-04-03T02:24:30;0.90;36.30
20839;DHT22;10580;51.092;6.828;2023-04-03T02:26:56;0.90;37.80
20839;DHT22;10580;51.092;6.828;2023-04-03T02:29:22;0.90;40.50
20839;DHT22;10580;51.092;6.828;2023-04-03T02:31:47;0.80;44.10
20839;DHT22;10580;51.092;6.828;2023-04-03T02:34:13;0.80;48.20
20839;DHT22;10580;51.092;6.828;2023-04-03T02:36:39;0.80;50.60
20839;DHT22;10580;51.092;6.828;2023-04-03T02:39:04;0.90;51.10
20839;DHT22;10580;51.092;6.828;2023-04-03T02:41:30;0.90;50.60
20839;DHT22;10580;51.092;6.828;2023-04-03T02:44:01;0.90;50.80
20839;DHT22;10580;51.092;6.828;2023-04-03T02:46:27;0.90;50.20
20839;DHT22;10580;51.092;6.828;2023-04-03T02:48:52;0.90;49.60
20839;DHT22;10580;51.092;6.828;2023-04-03T02:51:18;0.90;48.30
20839;DHT22;10580;51.092;6.828;2023-04-03T02:53:43;0.90;47.60
20839;DHT22;10580;51.092;6.828;2023-04-03T02:56:09;0.90;46.20
20839;DHT22;10580;51.092;6.828;2023-04-03T02:58:35;0.90;43.80
20839;DHT22;10580;51.092;6.828;2023-04-03T03:01:00;1.00;44.00
20839;DHT22;10580;51.092;6.828;2023-04-03T03:03:26;1.00;42.30
20839;DHT22;10580;51.092;6.828;2023-04-03T03:06:03;1.00;40.80
20839;DHT22;10580;51.092;6.828;2023-04-03T03:08:29;0.90;34.30
20839;DHT22;10580;51.092;6.828;2023-04-03T03:10:55;0.90;32.70
20839;DHT22;10580;51.092;6.828;2023-04-03T03:13:20;0.90;30.20
20839;DHT22;10580;51.092;6.828;2023-04-03T03:15:46;0.90;29.10
20839;DHT22;10580;51.092;6.828;2023-04-03T03:18:11;0.90;33.80
20839;DHT22;10580;51.092;6.828;2023-04-03T03:20:37;0.90;25.40
20839;DHT22;10580;51.092;6.828;2023-04-03T03:23:02;0.90;23.90
20839;DHT22;10580;51.092;6.828;2023-04-03T03:25:28;0.90;22.90
20839;DHT22;10580;51.092;6.828;2023-04-03T03:27:54;0.90;21.30
20839;DHT22;10580;51.092;6.828;2023-04-03T03:30:19;0.90;20.20
20839;DHT22;10580;51.092;6.828;2023-04-03T03:32:45;0.90;19.10
20839;DHT22;10580;51.092;6.828;2023-04-03T03:35:10;0.90;19.20
20839;DHT22;10580;51.092;6.828;2023-04-03T03:37:36;0.80;20.60
20839;DHT22;10580;51.092;6.828;2023-04-03T03:40:01;0.80;21.50
20839;DHT22;10580;51.092;6.828;2023-04-03T03:42:27;0.80;23.00
20839;DHT22;10580;51.092;6.828;2023-04-03T03:44:53;0.80;24.90
20839;DHT22;10580;51.092;6.828;2023-04-03T03:47:18;0.80;26.70
20839;DHT22;10580;51.092;6.828;2023-04-03T03:49:44;0.80;25.10
20839;DHT22;10580;51.092;6.828;2023-04-03T03:52:09;0.80;25.70
20839;DHT22;10580;51.092;6.828;2023-04-03T03:54:36;0.80;41.20
20839;DHT22;10580;51.092;6.828;2023-04-03T03:57:02;0.80;32.90
20839;DHT22;10580;51.092;6.828;2023-04-03T03:59:28;0.70;24.90
20839;DHT22;10580;51.092;6.828;2023-04-03T04:01:53;0.70;23.20
20839;DHT22;10580;51.092;6.828;2023-04-03T04:04:20;0.70;22.60
20839;DHT22;10580;51.092;6.828;2023-04-03T04:06:45;0.70;22.60
20839;DHT22;10580;51.092;6.828;2023-04-03T04:09:11;0.70;23.30
20839;DHT22;10580;51.092;6.828;2023-04-03T04:11:37;0.70;25.20
20839;DHT22;10580;51.092;6.828;2023-04-03T04:14:05;0.70;30.10
20839;DHT22;10580;51.092;6.828;2023-04-03T04:16:30;0.60;24.40
20839;DHT22;10580;51.092;6.828;2023-04-03T04:18:56;0.60;24.00
20839;DHT22;10580;51.092;6.828;2023-04-03T04:21:21;0.60;24.90
20839;DHT22;10580;51.092;6.828;2023-04-03T04:23:47;0.60;26.00
20839;DHT22;10580;51.092;6.828;2023-04-03T04:26:12;0.50;39.70
20839;DHT22;10580;51.092;6.828;2023-04-03T04:28:38;0.60;33.20
20839;DHT22;10580;51.092;6.828;2023-04-03T04:31:04;0.50;26.80
20839;DHT22;10580;51.092;6.828;2023-04-03T04:33:29;0.50;27.20
20839;DHT22;10580;51.092;6.828;2023-04-03T04:35:55;0.40;28.90
20839;DHT22;10580;51.092;6.828;2023-04-03T04:38:21;0.40;30.40
20839;DHT22;10580;51.092;6.828;2023-04-03T04:40:47;0.40;33.20
20839;DHT22;10580;51.092;6.828;2023-04-03T04:43:13;0.40;35.60
20839;DHT22;10580;51.092;6.828;2023-04-03T04:45:40;0.40;39.00
20839;DHT22;10580;51.092;6.828;2023-04-03T04:48:06;0.40;44.20
20839;DHT22;10580;51.092;6.828;2023-04-03T04:50:31;0.50;43.30
20839;DHT22;10580;51.092;6.828;2023-04-03T04:52:57;0.50;29.90
20839;DHT22;10580;51.092;6.828;2023-04-03T04:55:22;0.50;32.40
20839;DHT22;10580;51.092;6.828;2023-04-03T04:57:48;0.50;28.60
20839;DHT22;10580;51.092;6.828;2023-04-03T05:00:14;0.50;24.40
20839;DHT22;10580;51.092;6.828;2023-04-03T05:02:40;0.50;29.20
20839;DHT22;10580;51.092;6.828;2023-04-03T05:05:06;0.40;26.10
20839;DHT22;10580;51.092;6.828;2023-04-03T05:07:32;0.50;31.00
20839;DHT22;10580;51.092;6.828;2023-04-03T05:09:58;0.50;24.60
20839;DHT22;10580;51.092;6.828;2023-04-03T05:12:23;0.50;23.40
20839;DHT22;10580;51.092;6.828;2023-04-03T05:14:49;0.50;24.70
20839;DHT22;10580;51.092;6.828;2023-04-03T05:17:15;0.60;29.30
20839;DHT22;10580;51.092;6.828;2023-04-03T05:19:40;0.60;20.30
20839;DHT22;10580;51.092;6.828;2023-04-03T05:22:06;0.60;20.70
20839;DHT22;10580;51.092;6.828;2023-04-03T05:24:31;0.70;19.90
20839;DHT22;10580;51.092;6.828;2023-04-03T05:26:57;0.70;18.10
20839;DHT22;10580;51.092;6.828;2023-04-03T05:29:22;0.80;19.10
20839;DHT22;10580;51.092;6.828;2023-04-03T05:31:51;0.70;11.80
20839;DHT22;10580;51.092;6.828;2023-04-03T05:34:17;0.80;12.70
20839;DHT22;10580;51.092;6.828;2023-04-03T05:36:42;0.80;13.00
20839;DHT22;10580;51.092;6.828;2023-04-03T05:39:08;0.80;1.00
20839;DHT22;10580;51.092;6.828;2023-04-03T05:41:34;0.90;1.00
20839;DHT22;10580;51.092;6.828;2023-04-03T05:44:00;0.90;1.00
20839;DHT22;10580;51.092;6.828;2023-04-03T05:46:25;1.40;21.10
20839;DHT22;10580;51.092;6.828;2023-04-03T05:48:51;3.40;98.70
20839;DHT22;10580;51.092;6.828;2023-04-03T05:51:25;5.90;1.00
20839;DHT22;10580;51.092;6.828;2023-04-03T05:53:59;8.10;99.90
20839;DHT22;10580;51.092;6.828;2023-04-03T05:56:26;9.80;99.90
20839;DHT22;10580;51.092;6.828;2023-04-03T05:58:51;11.10;1.00
20839;DHT22;10580;51.092;6.828;2023-04-03T06:01:17;11.70;17.80
20839;DHT22;10580;51.092;6.828;2023-04-03T06:03:42;12.50;1.00
20839;DHT22;10580;51.092;6.828;2023-04-03T06:06:10;13.10;1.00
20839;DHT22;10580;51.092;6.828;2023-04-03T06:08:37;14.00;1.00
20839;DHT22;10580;51.092;6.828;2023-04-03T06:11:03;14.60;99.90
20839;DHT22;10580;51.092;6.828;2023-04-03T06:13:29;15.20;1.00
20839;DHT22;10580;51.092;6.828;2023-04-03T06:15:54;16.00;99.90
20839;DHT22;10580;51.092;6.828;2023-04-03T06:18:21;16.10;99.90
20839;DHT22;10580;51.092;6.828;2023-04-03T06:20:46;16.40;99.90
20839;DHT22;10580;51.092;6.828;2023-04-03T06:23:12;16.30;99.90
20839;DHT22;10580;51.092;6.828;2023-04-03T06:25:37;14.80;99.90
20839;DHT22;10580;51.092;6.828;2023-04-03T06:28:03;12.80;99.90
20839;DHT22;10580;51.092;6.828;2023-04-03T06:30:28;11.20;99.90
20839;DHT22;10580;51.092;6.828;2023-04-03T06:32:54;9.90;99.90
20839;DHT22;10580;51.092;6.828;2023-04-03T06:35:20;10.60;99.90
20839;DHT22;10580;51.092;6.828;2023-04-03T06:37:49;10.20;99.90
20839;DHT22;10580;51.092;6.828;2023-04-03T06:40:19;9.00;99.90
20839;DHT22;10580;51.092;6.828;2023-04-03T06:42:46;8.20;99.90
20839;DHT22;10580;51.092;6.828;2023-04-03T06:45:12;7.60;99.90
20839;DHT22;10580;51.092;6.828;2023-04-03T06:47:37;8.50;1.00
20839;DHT22;10580;51.092;6.828;2023-04-03T06:50:03;10.30;99.90
20839;DHT22;10580;51.092;6.828;2023-04-03T06:52:29;9.90;99.90
20839;DHT22;10580;51.092;6.828;2023-04-03T06:54:54;9.00;99.90
20839;DHT22;10580;51.092;6.828;2023-04-03T06:57:22;7.70;99.90
20839;DHT22;10580;51.092;6.828;2023-04-03T06:59:48;6.80;99.90
20839;DHT22;10580;51.092;6.828;2023-04-03T07:02:14;6.20;99.90
20839;DHT22;10580;51.092;6.828;2023-04-03T07:04:40;5.70;99.90
20839;DHT22;10580;51.092;6.828;2023-04-03T07:07:05;5.40;99.90
20839;DHT22;10580;51.092;6.828;2023-04-03T07:09:31;5.60;1.00
20839;DHT22;10580;51.092;6.828;2023-04-03T07:11:57;6.90;1.00
20839;DHT22;10580;51.092;6.828;2023-04-03T07:14:22;9.40;1.00
20839;DHT22;10580;51.092;6.828;2023-04-03T07:16:48;12.30;99.90
20839;DHT22;10580;51.092;6.828;2023-04-03T07:19:14;14.60;99.90
20839;DHT22;10580;51.092;6.828;2023-04-03T07:21:39;15.90;99.90
20839;DHT22;10580;51.092;6.828;2023-04-03T07:24:07;16.60;99.90
20839;DHT22;10580;51.092;6.828;2023-04-03T07:26:32;16.50;99.90
20839;DHT22;10580;51.092;6.828;2023-04-03T07:28:58;17.20;99.90
20839;DHT22;10580;51.092;6.828;2023-04-03T07:31:24;18.40;99.90
20839;DHT22;10580;51.092;6.828;2023-04-03T07:33:50;18.60;40.40
20839;DHT22;10580;51.092;6.828;2023-04-03T07:36:19;17.80;3.40
20839;DHT22;10580;51.092;6.828;2023-04-03T07:38:44;17.70;4.00
20839;DHT22;10580;51.092;6.828;2023-04-03T07:41:18;17.40;1.00
20839;DHT22;10580;51.092;6.828;2023-04-03T07:43:45;17.20;1.00
20839;DHT22;10580;51.092;6.828;2023-04-03T07:46:11;17.30;1.00
20839;DHT22;10580;51.092;6.828;2023-04-03T07:48:37;17.80;1.00
20839;DHT22;10580;51.092;6.828;2023-04-03T07:51:04;17.90;1.00
20839;DHT22;10580;51.092;6.828;2023-04-03T07:53:30;17.30;1.00
20839;DHT22;10580;51.092;6.828;2023-04-03T07:55:57;17.10;1.00
20839;DHT22;10580;51.092;6.828;2023-04-03T07:58:23;16.70;1.00
20839;DHT22;10580;51.092;6.828;2023-04-03T08:00:49;16.90;1.00
20839;DHT22;10580;51.092;6.828;2023-04-03T08:03:15;17.30;1.00
20839;DHT22;10580;51.092;6.828;2023-04-03T08:05:47;15.80;1.00
20839;DHT22;10580;51.092;6.828;2023-04-03T08:08:15;15.50;1.00
20839;DHT22;10580;51.092;6.828;2023-04-03T08:10:41;15.80;1.00
20839;DHT22;10580;51.092;6.828;2023-04-03T08:13:07;16.40;1.00
20839;DHT22;10580;51.092;6.828;2023-04-03T08:15:34;17.30;1.00
20839;DHT22;10580;51.092;6.828;2023-04-03T08:18:00;17.50;1.00
20839;DHT22;10580;51.092;6.828;2023-04-03T08:20:26;17.70;1.00
20839;DHT22;10580;51.092;6.828;2023-04-03T08:22:52;17.50;1.00
20839;DHT22;10580;51.092;6.828;2023-04-03T08:25:18;16.80;1.00
20839;DHT22;10580;51.092;6.828;2023-04-03T08:27:44;17.00;1.00
20839;DHT22;10580;51.092;6.828;2023-04-03T08:30:10;17.20;1.00
20839;DHT22;10580;51.092;6.828;2023-04-03T08:32:36;17.20;1.00
20839;DHT22;10580;51.092;6.828;2023-04-03T08:35:03;16.80;1.00
20839;DHT22;10580;51.092;6.828;2023-04-03T08:37:29;17.00;1.00
20839;DHT22;10580;51.092;6.828;2023-04-03T08:39:55;16.50;1.00
20839;DHT22;10580;51.092;6.828;2023-04-03T08:45:17;16.30;1.00
20839;DHT22;10580;51.092;6.828;2023-04-03T08:47:47;16.60;1.00
20839;DHT22;10580;51.092;6.828;2023-04-03T08:50:20;16.50;1.00
20839;DHT22;10580;51.092;6.828;2023-04-03T08:52:54;16.90;1.00
20839;DHT22;10580;51.092;6.828;2023-04-03T08:55:34;17.40;1.00
20839;DHT22;10580;51.092;6.828;2023-04-03T08:58:06;17.20;1.00
20839;DHT22;10580;51.092;6.828;2023-04-03T09:01:15;17.40;1.00
20839;DHT22;10580;51.092;6.828;2023-04-03T09:03:42;17.90;1.00
20839;DHT22;10580;51.092;6.828;2023-04-03T09:06:13;18.10;1.00
20839;DHT22;10580;51.092;6.828;2023-04-03T09:11:27;17.20;1.00
20839;DHT22;10580;51.092;6.828;2023-04-03T09:14:12;16.80;1.00
20839;DHT22;10580;51.092;6.828;2023-04-03T09:21:40;16.80;1.00
20839;DHT22;10580;51.092;6.828;2023-04-03T09:24:09;16.40;1.00
20839;DHT22;10580;51.092;6.828;2023-04-03T09:29:07;17.00;1.00
20839;DHT22;10580;51.092;6.828;2023-04-03T09:31:39;16.50;1.00
20839;DHT22;10580;51.092;6.828;2023-04-03T09:36:54;16.50;57.30
20839;DHT22;10580;51.092;6.828;2023-04-03T09:39:25;16.80;1.00
20839;DHT22;10580;51.092;6.828;2023-04-03T09:42:14;15.70;1.00
20839;DHT22;10580;51.092;6.828;2023-04-03T09:44:42;15.10;1.00
20839;DHT22;10580;51.092;6.828;2023-04-03T09:47:28;14.90;1.00
20839;DHT22;10580;51.092;6.828;2023-04-03T09:50:20;15.00;1.00
20839;DHT22;10580;51.092;6.828;2023-04-03T09:52:48;14.80;1.00
20839;DHT22;10580;51.092;6.828;2023-04-03T09:55:25;14.70;1.00
20839;DHT22;10580;51.092;6.828;2023-04-03T09:58:03;14.90;1.00
20839;DHT22;10580;51.092;6.828;2023-04-03T10:00:37;14.10;1.00
20839;DHT22;10580;51.092;6.828;2023-04-03T10:03:05;13.30;1.00
20839;DHT22;10580;51.092;6.828;2023-04-03T10:05:41;11.90;1.00
20839;DHT22;10580;51.092;6.828;2023-04-03T10:10:40;11.60;1.00
20839;DHT22;10580;51.092;6.828;2023-04-03T10:13:17;11.50;4.20
20839;DHT22;10580;51.092;6.828;2023-04-03T10:16:07;11.20;99.90
20839;DHT22;10580;51.092;6.828;2023-04-03T10:21:29;10.90;1.00
20839;DHT22;10580;51.092;6.828;2023-04-03T10:34:56;11.50;1.00
20839;DHT22;10580;51.092;6.828;2023-04-03T10:37:30;11.50;1.00
20839;DHT22;10580;51.092;6.828;2023-04-03T10:40:23;11.30;1.00
20839;DHT22;10580;51.092;6.828;2023-04-03T10:43:08;12.20;1.00
20839;DHT22;10580;51.092;6.828;2023-04-03T10:46:09;12.50;1.00
20839;DHT22;10580;51.092;6.828;2023-04-03T10:48:49;12.10;1.00
20839;DHT22;10580;51.092;6.828;2023-04-03T10:51:32;11.80;1.00
20839;DHT22;10580;51.092;6.828;2023-04-03T10:54:12;11.20;1.00
20839;DHT22;10580;51.092;6.828;2023-04-03T10:59:27;10.50;1.00
20839;DHT22;10580;51.092;6.828;2023-04-03T11:02:00;10.30;99.90
20839;DHT22;10580;51.092;6.828;2023-04-03T11:04:29;10.10;8.60
20839;DHT22;10580;51.092;6.828;2023-04-03T11:07:08;9.90;99.90
20839;DHT22;10580;51.092;6.828;2023-04-03T11:09:39;9.70;99.90
20839;DHT22;10580;51.092;6.828;2023-04-03T11:12:25;9.70;1.00
20839;DHT22;10580;51.092;6.828;2023-04-03T11:14:53;9.80;1.00
20839;DHT22;10580;51.092;6.828;2023-04-03T11:19:59;9.70;1.00
20839;DHT22;10580;51.092;6.828;2023-04-03T11:22:33;9.70;7.50
20839;DHT22;10580;51.092;6.828;2023-04-03T11:25:18;9.50;12.50
20839;DHT22;10580;51.092;6.828;2023-04-03T11:27:55;9.40;1.00
20839;DHT22;10580;51.092;6.828;2023-04-03T11:30:23;9.60;1.00
20839;DHT22;10580;51.092;6.828;2023-04-03T11:33:15;9.90;1.00
20839;DHT22;10580;51.092;6.828;2023-04-03T11:35:51;10.60;1.00
20839;DHT22;10580;51.092;6.828;2023-04-03T11:38:30;11.00;46.00
20839;DHT22;10580;51.092;6.828;2023-04-03T11:41:00;11.20;1.00
20839;DHT22;10580;51.092;6.828;2023-04-03T11:43:29;11.40;1.00
20839;DHT22;10580;51.092;6.828;2023-04-03T11:46:03;11.70;1.00
20839;DHT22;10580;51.092;6.828;2023-04-03T11:51:03;12.00;1.00
20839;DHT22;10580;51.092;6.828;2023-04-03T11:53:48;12.10;99.90
20839;DHT22;10580;51.092;6.828;2023-04-03T11:56:28;12.10;1.00
20839;DHT22;10580;51.092;6.828;2023-04-03T12:04:16;12.40;1.00
20839;DHT22;10580;51.092;6.828;2023-04-03T12:11:49;12.40;1.00
20839;DHT22;10580;51.092;6.828;2023-04-03T12:14:15;12.60;1.00
20839;DHT22;10580;51.092;6.828;2023-04-03T12:19:33;12.90;36.70
20839;DHT22;10580;51.092;6.828;2023-04-03T12:34:49;12.60;1.00
20839;DHT22;10580;51.092;6.828;2023-04-03T12:40:17;13.10;1.00
20839;DHT22;10580;51.092;6.828;2023-04-03T12:45:21;13.10;1.00
20839;DHT22;10580;51.092;6.828;2023-04-03T12:47:54;13.20;1.00
20839;DHT22;10580;51.092;6.828;2023-04-03T12:50:32;13.40;1.00
20839;DHT22;10580;51.092;6.828;2023-04-03T12:53:02;13.90;1.00
20839;DHT22;10580;51.092;6.828;2023-04-03T12:55:29;13.70;1.00
20839;DHT22;10580;51.092;6.828;2023-04-03T12:57:57;13.70;1.00
20839;DHT22;10580;51.092;6.828;2023-04-03T13:00:38;13.70;1.00
20839;DHT22;10580;51.092;6.828;2023-04-03T13:03:06;13.50;1.00
20839;DHT22;10580;51.092;6.828;2023-04-03T13:05:32;13.00;1.00
20839;DHT22;10580;51.092;6.828;2023-04-03T13:08:01;12.90;1.00
20839;DHT22;10580;51.092;6.828;2023-04-03T13:10:29;13.00;1.00
20839;DHT22;10580;51.092;6.828;2023-04-03T13:13:07;13.00;1.00
20839;DHT22;10580;51.092;6.828;2023-04-03T13:15:45;13.40;1.00
20839;DHT22;10580;51.092;6.828;2023-04-03T13:20:52;14.40;1.00
20839;DHT22;10580;51.092;6.828;2023-04-03T13:23:19;14.00;1.00
20839;DHT22;10580;51.092;6.828;2023-04-03T13:25:47;13.80;1.00
20839;DHT22;10580;51.092;6.828;2023-04-03T13:28:18;13.60;1.00
20839;DHT22;10580;51.092;6.828;2023-04-03T13:33:37;13.30;1.00
20839;DHT22;10580;51.092;6.828;2023-04-03T13:36:06;13.50;1.00
20839;DHT22;10580;51.092;6.828;2023-04-03T13:38:33;13.80;1.00
20839;DHT22;10580;51.092;6.828;2023-04-03T13:41:05;13.80;1.00
20839;DHT22;10580;51.092;6.828;2023-04-03T13:43:46;13.70;1.00
20839;DHT22;10580;51.092;6.828;2023-04-03T13:48:52;13.20;1.00
20839;DHT22;10580;51.092;6.828;2023-04-03T13:51:26;13.00;1.00
20839;DHT22;10580;51.092;6.828;2023-04-03T13:54:00;13.00;1.00
20839;DHT22;10580;51.092;6.828;2023-04-03T13:56:36;12.90;1.00
20839;DHT22;10580;51.092;6.828;2023-04-03T14:02:46;13.30;1.00
20839;DHT22;10580;51.092;6.828;2023-04-03T14:04:48;13.20;1.00
20839;DHT22;10580;51.092;6.828;2023-04-03T14:07:16;13.10;1.00
20839;DHT22;10580;51.092;6.828;2023-04-03T14:09:42;12.90;1.00
20839;DHT22;10580;51.092;6.828;2023-04-03T14:12:17;12.70;1.00
20839;DHT22;10580;51.092;6.828;2023-04-03T14:14:43;12.60;1.00
20839;DHT22;10580;51.092;6.828;2023-04-03T14:17:18;12.60;1.00
20839;DHT22;10580;51.092;6.828;2023-04-03T14:19:45;12.60;1.00
20839;DHT22;10580;51.092;6.828;2023-04-03T14:22:31;12.50;99.90
20839;DHT22;10580;51.092;6.828;2023-04-03T14:24:57;12.50;1.00
20839;DHT22;10580;51.092;6.828;2023-04-03T14:27:35;12.40;1.00
20839;DHT22;10580;51.092;6.828;2023-04-03T14:30:07;12.50;1.00
20839;DHT22;10580;51.092;6.828;2023-04-03T14:32:33;12.60;1.00
20839;DHT22;10580;51.092;6.828;2023-04-03T14:34:59;12.60;30.60
20839;DHT22;10580;51.092;6.828;2023-04-03T14:37:28;12.60;99.90
20839;DHT22;10580;51.092;6.828;2023-04-03T14:39:55;12.50;1.00
20839;DHT22;10580;51.092;6.828;2023-04-03T14:42:25;12.20;1.00
20839;DHT22;10580;51.092;6.828;2023-04-03T14:44:51;12.30;52.70
20839;DHT22;10580;51.092;6.828;2023-04-03T14:47:21;12.40;1.00
20839;DHT22;10580;51.092;6.828;2023-04-03T14:49:47;12.70;99.90
20839;DHT22;10580;51.092;6.828;2023-04-03T14:52:24;12.70;20.80
20839;DHT22;10580;51.092;6.828;2023-04-03T14:54:52;12.70;99.90
20839;DHT22;10580;51.092;6.828;2023-04-03T14:57:18;12.50;99.90
20839;DHT22;10580;51.092;6.828;2023-04-03T14:59:45;12.30;1.00
20839;DHT22;10580;51.092;6.828;2023-04-03T15:02:35;12.10;72.80
20839;DHT22;10580;51.092;6.828;2023-04-03T15:05:03;12.20;11.90
20839;DHT22;10580;51.092;6.828;2023-04-03T15:07:33;12.20;99.90
20839;DHT22;10580;51.092;6.828;2023-04-03T15:10:21;12.10;1.00
20839;DHT22;10580;51.092;6.828;2023-04-03T15:12:50;11.90;1.00
20839;DHT22;10580;51.092;6.828;2023-04-03T15:15:18;11.60;1.00
20839;DHT22;10580;51.092;6.828;2023-04-03T15:17:46;11.50;1.00
20839;DHT22;10580;51.092;6.828;2023-04-03T15:20:20;11.50;1.00
20839;DHT22;10580;51.092;6.828;2023-04-03T15:22:46;11.50;1.00
20839;DHT22;10580;51.092;6.828;2023-04-03T15:25:12;11.50;1.00
20839;DHT22;10580;51.092;6.828;2023-04-03T15:27:38;11.50;9.50
20839;DHT22;10580;51.092;6.828;2023-04-03T15:30:05;11.40;1.00
20839;DHT22;10580;51.092;6.828;2023-04-03T15:32:31;11.40;1.00
20839;DHT22;10580;51.092;6.828;2023-04-03T15:34:57;11.20;1.00
20839;DHT22;10580;51.092;6.828;2023-04-03T15:37:23;11.20;1.00
20839;DHT22;10580;51.092;6.828;2023-04-03T15:39:49;11.20;1.00
20839;DHT22;10580;51.092;6.828;2023-04-03T15:42:14;11.30;1.00
20839;DHT22;10580;51.092;6.828;2023-04-03T15:44:40;11.30;1.00
20839;DHT22;10580;51.092;6.828;2023-04-03T15:47:06;11.20;1.00
20839;DHT22;10580;51.092;6.828;2023-04-03T15:49:35;11.20;9.30
20839;DHT22;10580;51.092;6.828;2023-04-03T15:52:01;11.20;1.00
20839;DHT22;10580;51.092;6.828;2023-04-03T15:54:27;11.20;1.00
20839;DHT22;10580;51.092;6.828;2023-04-03T15:56:54;11.10;1.00
20839;DHT22;10580;51.092;6.828;2023-04-03T15:59:20;11.10;1.00
20839;DHT22;10580;51.092;6.828;2023-04-03T16:01:46;11.00;1.00
20839;DHT22;10580;51.092;6.828;2023-04-03T16:04:12;10.90;1.00
20839;DHT22;10580;51.092;6.828;2023-04-03T16:06:38;10.90;1.00
20839;DHT22;10580;51.092;6.828;2023-04-03T16:09:04;10.70;1.00
20839;DHT22;10580;51.092;6.828;2023-04-03T16:11:30;10.60;1.00
20839;DHT22;10580;51.092;6.828;2023-04-03T16:13:56;10.50;1.00
20839;DHT22;10580;51.092;6.828;2023-04-03T16:16:23;10.50;1.00
20839;DHT22;10580;51.092;6.828;2023-04-03T16:18:50;10.50;1.00
20839;DHT22;10580;51.092;6.828;2023-04-03T16:21:17;10.30;1.00
20839;DHT22;10580;51.092;6.828;2023-04-03T16:23:44;10.10;1.00
20839;DHT22;10580;51.092;6.828;2023-04-03T16:26:10;10.10;97.80
20839;DHT22;10580;51.092;6.828;2023-04-03T16:28:35;10.10;99.90
20839;DHT22;10580;51.092;6.828;2023-04-03T16:31:02;10.10;30.50
20839;DHT22;10580;51.092;6.828;2023-04-03T16:33:28;10.00;1.00
20839;DHT22;10580;51.092;6.828;2023-04-03T16:35:55;9.90;1.00
20839;DHT22;10580;51.092;6.828;2023-04-03T16:38:20;9.90;1.00
20839;DHT22;10580;51.092;6.828;2023-04-03T16:40:48;9.90;1.00
20839;DHT22;10580;51.092;6.828;2023-04-03T16:43:14;9.70;99.90
20839;DHT22;10580;51.092;6.828;2023-04-03T16:45:40;9.70;68.50
20839;DHT22;10580;51.092;6.828;2023-04-03T16:48:05;9.60;1.00
20839;DHT22;10580;51.092;6.828;2023-04-03T16:50:31;9.50;1.00
20839;DHT22;10580;51.092;6.828;2023-04-03T16:52:57;9.40;1.00
20839;DHT22;10580;51.092;6.828;2023-04-03T16:55:23;9.30;1.00
20839;DHT22;10580;51.092;6.828;2023-04-03T16:57:48;9.20;1.00
20839;DHT22;10580;51.092;6.828;2023-04-03T17:00:14;9.00;1.00
20839;DHT22;10580;51.092;6.828;2023-04-03T17:02:40;8.90;1.00
20839;DHT22;10580;51.092;6.828;2023-04-03T17:05:07;8.70;1.00
20839;DHT22;10580;51.092;6.828;2023-04-03T17:07:33;8.60;1.00
20839;DHT22;10580;51.092;6.828;2023-04-03T17:09:59;8.60;1.00
20839;DHT22;10580;51.092;6.828;2023-04-03T17:12:25;8.40;1.00
20839;DHT22;10580;51.092;6.828;2023-04-03T17:14:50;8.30;1.00
20839;DHT22;10580;51.092;6.828;2023-04-03T17:17:20;8.30;1.00
20839;DHT22;10580;51.092;6.828;2023-04-03T17:19:46;8.20;1.00
20839;DHT22;10580;51.092;6.828;2023-04-03T17:22:12;8.20;1.00
20839;DHT22;10580;51.092;6.828;2023-04-03T17:24:38;8.10;1.00
20839;DHT22;10580;51.092;6.828;2023-04-03T17:27:03;8.00;1.00